Kiyotaki — JG5653 — position and weather

sailwx.info

Track history (hours):
 
Tides and Currents Weather Stations Pressure Air Temp Water Temp Dewpoint Dewpoint Depression Visibility Wind Speed Wind Dir Waves Ship Positions

Kiyotaki

Last reported at 2018-Feb-17 23:27 UTC. Time now 2018-Feb-17 23:54 UTC.
Position N 35°17' E 139°41'.

Length 36 m.

Type: Tug. MMSI: 431100981.

Date/timePositionNaut miles runAvg speedWind from/ knotsBaromVisibWave heightAir tempDewpointWater temp
2018-Feb-17 23:27N 35°17' E 139°41'0 0.0
2018-Feb-17 23:00N 35°17' E 139°41'0 0.0
2018-Feb-17 22:15N 35°17' E 139°41'0 0.0
2018-Feb-17 21:57N 35°17' E 139°41'0 0.0
2018-Feb-17 21:30N 35°17' E 139°41'0 0.0
2018-Feb-17 21:00N 35°17' E 139°41'0 0.0
2018-Feb-17 20:30N 35°17' E 139°41'0 0.0
2018-Feb-17 19:57N 35°17' E 139°41'0 0.0
2018-Feb-17 19:27N 35°17' E 139°41'0 0.0
2018-Feb-17 19:00N 35°17' E 139°41'0 0.0
2018-Feb-17 18:24N 35°17' E 139°41'0 0.0
2018-Feb-17 17:57N 35°17' E 139°41'0 0.0
2018-Feb-17 17:30N 35°17' E 139°41'0 0.0
2018-Feb-17 17:00N 35°17' E 139°41'0 0.0
2018-Feb-17 16:30N 35°17' E 139°41'0 0.0
2018-Feb-17 15:51N 35°17' E 139°41'0 0.0
2018-Feb-17 15:30N 35°17' E 139°41'0 0.0
2018-Feb-17 15:00N 35°17' E 139°41'0 0.0
2018-Feb-17 14:30N 35°17' E 139°41'0 0.0
2018-Feb-17 14:00N 35°17' E 139°41'0 0.0
2018-Feb-17 13:30N 35°17' E 139°41'0 0.0
2018-Feb-17 13:00N 35°17' E 139°41'0 0.0
2018-Feb-17 12:29N 35°17' E 139°41'4 7.3
2018-Feb-17 11:58N 35°16' E 139°45'2 4.5
2018-Feb-17 11:29N 35°14' E 139°46'612.8
2018-Feb-17 11:00N 35°19' E 139°43'4 7.3
2018-Feb-17 10:28N 35°23' E 139°42'1 3.1
2018-Feb-17 10:00N 35°22' E 139°41'4 7.9
2018-Feb-17 09:28N 35°18' E 139°42'1 2.3
2018-Feb-17 08:57N 35°17' E 139°41'0 0.0
2018-Feb-17 08:27N 35°17' E 139°41'0 0.0
2018-Feb-17 08:00N 35°17' E 139°41'0 0.0
2018-Feb-17 07:30N 35°17' E 139°41'1 2.1
2018-Feb-17 07:00N 35°18' E 139°41'2 2.8
2018-Feb-17 06:25N 35°19' E 139°40'0 0.3
2018-Feb-17 05:59N 35°19' E 139°40'0 0.3
2018-Feb-17 05:28N 35°19' E 139°40'0 0.4
2018-Feb-17 04:55N 35°19' E 139°40'0 0.3
2018-Feb-17 04:20N 35°19' E 139°40'0 0.8
2018-Feb-17 04:00N 35°19' E 139°40'2 4.3
2018-Feb-17 03:28N 35°17' E 139°41'0 0.0
2018-Feb-17 02:43N 35°17' E 139°41'0 0.0
2018-Feb-17 02:22N 35°17' E 139°41'0 0.0
2018-Feb-17 01:55N 35°17' E 139°41'0 0.0
2018-Feb-17 01:28N 35°17' E 139°41'2 3.2
2018-Feb-17 00:59N 35°18' E 139°42'1 1.1
2018-Feb-17 00:28N 35°18' E 139°43'0 0.7
2018-Feb-16 23:57N 35°18' E 139°43'0 0.6
2018-Feb-16 23:30N 35°18' E 139°43'0 0.5
2018-Feb-16 23:00N 35°18' E 139°43'0 0.8
2018-Feb-16 22:30N 35°18' E 139°43'2 3.3
2018-Feb-16 21:54N 35°17' E 139°41'0 0.0
2018-Feb-16 21:25N 35°17' E 139°41'0 0.0
2018-Feb-16 20:55N 35°17' E 139°41'0 0.0
2018-Feb-16 20:28N 35°17' E 139°41'0 0.0
2018-Feb-16 19:58N 35°17' E 139°41'0 0.0
2018-Feb-16 19:28N 35°17' E 139°41'0 0.0
2018-Feb-16 18:58N 35°17' E 139°41'0 0.0
2018-Feb-16 18:27N 35°17' E 139°41'0 0.0
2018-Feb-16 17:57N 35°17' E 139°41'0 0.0
2018-Feb-16 17:27N 35°17' E 139°41'0 0.0
2018-Feb-16 16:57N 35°17' E 139°41'0 0.0
2018-Feb-16 16:14N 35°17' E 139°41'0 0.0
2018-Feb-16 15:44N 35°17' E 139°41'0 0.0
2018-Feb-16 15:26N 35°17' E 139°41'0 0.0
2018-Feb-16 14:59N 35°17' E 139°41'0 0.0
2018-Feb-16 14:29N 35°17' E 139°41'0 0.0
2018-Feb-16 13:59N 35°17' E 139°41'0 0.0
2018-Feb-16 13:26N 35°17' E 139°41'0 0.0
2018-Feb-16 12:58N 35°17' E 139°41'0 0.0
2018-Feb-16 12:28N 35°17' E 139°41'0 0.0
2018-Feb-16 11:55N 35°17' E 139°41'0 0.0
2018-Feb-16 11:22N 35°17' E 139°41'0 0.0
2018-Feb-16 10:55N 35°17' E 139°41'0 0.0
2018-Feb-16 10:25N 35°17' E 139°41'0 0.0
2018-Feb-16 09:58N 35°17' E 139°41'0 0.0
2018-Feb-16 09:25N 35°17' E 139°41'0 0.0
2018-Feb-16 08:58N 35°17' E 139°41'0 0.0
2018-Feb-16 08:28N 35°17' E 139°41'0 0.0
2018-Feb-16 07:58N 35°17' E 139°41'0 0.0
2018-Feb-16 07:25N 35°17' E 139°41'0 0.0
2018-Feb-16 06:55N 35°17' E 139°41'0 0.0
2018-Feb-16 06:28N 35°17' E 139°41'0 0.0
2018-Feb-16 05:55N 35°17' E 139°41'0 0.0
2018-Feb-16 05:25N 35°17' E 139°41'0 0.0
2018-Feb-16 04:55N 35°17' E 139°41'0 0.0
2018-Feb-16 04:25N 35°17' E 139°41'1 2.3
2018-Feb-16 04:00N 35°18' E 139°42'1 2.0
2018-Feb-16 03:30N 35°18' E 139°42'0 0.2
2018-Feb-16 02:57N 35°18' E 139°43'0 0.4
2018-Feb-16 02:26N 35°18' E 139°43'0 0.6
2018-Feb-16 01:56N 35°18' E 139°43'1 2.2
2018-Feb-16 01:30N 35°17' E 139°43'0 0.3
2018-Feb-16 00:58N 35°18' E 139°43'1 2.7
2018-Feb-16 00:30N 35°17' E 139°41'0 0.7
2018-Feb-16 00:00N 35°17' E 139°41'1 3.0
2018-Feb-15 23:30N 35°18' E 139°42'1 2.7
2018-Feb-15 23:00N 35°19' E 139°40'0 0.9
2018-Feb-15 22:30N 35°19' E 139°40'0 0.2
2018-Feb-15 22:00N 35°19' E 139°40'3 4.9
2018-Feb-15 21:29N 35°17' E 139°41'0 0.0
2018-Feb-15 21:00N 35°17' E 139°41'0 0.0
2018-Feb-15 20:27N 35°17' E 139°41'0 0.0
2018-Feb-15 19:57N 35°17' E 139°41'0 0.0
2018-Feb-15 19:30N 35°17' E 139°41'0 0.0
2018-Feb-15 18:57N 35°17' E 139°41'0 0.0
2018-Feb-15 18:27N 35°17' E 139°41'0 0.0
2018-Feb-15 18:00N 35°17' E 139°41'0 0.0
2018-Feb-15 17:27N 35°17' E 139°41'0 0.0
2018-Feb-15 17:00N 35°17' E 139°41'0 0.0
2018-Feb-15 16:27N 35°17' E 139°41'0 0.0
2018-Feb-15 15:51N 35°17' E 139°41'0 0.0
2018-Feb-15 15:27N 35°17' E 139°41'0 0.0
2018-Feb-15 15:00N 35°17' E 139°41'0 0.0
2018-Feb-15 14:30N 35°17' E 139°41'0 0.0
2018-Feb-15 13:57N 35°17' E 139°41'0 0.0
2018-Feb-15 13:27N 35°17' E 139°41'0 0.0
2018-Feb-15 13:00N 35°17' E 139°41'0 0.0
2018-Feb-15 12:30N 35°17' E 139°41'0 0.0
2018-Feb-15 12:00N 35°17' E 139°41'0 0.0
2018-Feb-15 11:27N 35°17' E 139°41'0 0.0
2018-Feb-15 11:00N 35°17' E 139°41'0 0.0
2018-Feb-15 10:18N 35°17' E 139°41'0 0.0
2018-Feb-15 10:00N 35°17' E 139°41'0 0.0
2018-Feb-15 09:30N 35°17' E 139°41'0 0.0
2018-Feb-15 08:51N 35°17' E 139°41'0 0.0
2018-Feb-15 08:27N 35°17' E 139°41'0 0.0
2018-Feb-15 07:57N 35°17' E 139°41'0 0.0
2018-Feb-15 07:27N 35°17' E 139°41'0 0.0
2018-Feb-15 06:57N 35°17' E 139°41'2 2.1
2018-Feb-15 06:09N 35°18' E 139°42'0 0.0
2018-Feb-15 05:57N 35°18' E 139°42'0 0.0
2018-Feb-15 05:18N 35°18' E 139°42'0 0.0
2018-Feb-15 04:54N 35°18' E 139°42'0 0.0
2018-Feb-15 04:30N 35°18' E 139°42'0 0.0
2018-Feb-15 03:57N 35°18' E 139°42'0 0.0
2018-Feb-15 03:18N 35°18' E 139°42'2 5.0
2018-Feb-15 02:59N 35°17' E 139°41'2 2.3
2018-Feb-15 02:15N 35°18' E 139°42'0 0.1
2018-Feb-15 01:47N 35°18' E 139°42'0 0.9
2018-Feb-15 01:21N 35°18' E 139°42'1 1.0
2018-Feb-15 00:52N 35°18' E 139°42'1 3.5
2018-Feb-15 00:29N 35°17' E 139°41'1 2.1
2018-Feb-15 00:01N 35°18' E 139°42'1 1.0
2018-Feb-14 23:28N 35°17' E 139°41'0 0.2
2018-Feb-14 23:00N 35°17' E 139°41'1 1.9
2018-Feb-14 22:30N 35°18' E 139°42'0 0.2
2018-Feb-14 21:51N 35°18' E 139°42'0 0.4
2018-Feb-14 21:30N 35°17' E 139°42'3 5.0
2018-Feb-14 20:59N 35°20' E 139°42'714.0
2018-Feb-14 20:28N 35°27' E 139°44'4 7.8
2018-Feb-14 20:00N 35°30' E 139°46'1 2.1
2018-Feb-14 19:31N 35°31' E 139°44'0 0.0
2018-Feb-14 18:56N 35°31' E 139°44'0 0.0
2018-Feb-14 18:29N 35°31' E 139°44'0 0.0
2018-Feb-14 17:59N 35°31' E 139°44'0 0.0
2018-Feb-14 17:29N 35°31' E 139°44'0 0.0
2018-Feb-14 16:59N 35°31' E 139°44'0 0.0
2018-Feb-14 16:26N 35°31' E 139°44'0 0.0
2018-Feb-14 15:53N 35°31' E 139°44'0 0.0
2018-Feb-14 15:29N 35°31' E 139°44'0 0.0
2018-Feb-14 14:59N 35°31' E 139°44'0 0.0
2018-Feb-14 14:14N 35°31' E 139°44'0 0.0
2018-Feb-14 13:59N 35°31' E 139°44'0 0.0
2018-Feb-14 13:28N 35°31' E 139°44'0 0.0
2018-Feb-14 12:49N 35°31' E 139°44'0 0.0
2018-Feb-14 12:25N 35°31' E 139°44'0 0.0
2018-Feb-14 11:58N 35°31' E 139°44'0 0.0
2018-Feb-14 11:28N 35°31' E 139°44'0 0.0
2018-Feb-14 10:55N 35°31' E 139°44'0 0.0
2018-Feb-14 10:28N 35°31' E 139°44'0 0.0
2018-Feb-14 09:58N 35°31' E 139°44'0 0.0
2018-Feb-14 09:28N 35°31' E 139°44'0 0.0
2018-Feb-14 08:49N 35°31' E 139°44'0 0.0
2018-Feb-14 08:28N 35°31' E 139°44'0 0.0
2018-Feb-14 07:46N 35°31' E 139°44'0 0.0
2018-Feb-14 07:16N 35°31' E 139°44'0 0.0
2018-Feb-14 06:55N 35°31' E 139°44'0 0.0
2018-Feb-14 06:28N 35°31' E 139°44'0 0.0
2018-Feb-14 05:58N 35°31' E 139°44'0 0.0
2018-Feb-14 05:28N 35°31' E 139°44'0 0.0
2018-Feb-14 04:58N 35°31' E 139°44'0 0.0
2018-Feb-14 04:28N 35°31' E 139°44'0 0.0
2018-Feb-14 03:55N 35°31' E 139°44'0 0.0
2018-Feb-14 03:25N 35°31' E 139°44'0 0.0
2018-Feb-14 02:55N 35°31' E 139°44'0 0.0
2018-Feb-14 02:13N 35°31' E 139°44'0 1.6
2018-Feb-14 01:58N 35°31' E 139°45'613.1
2018-Feb-14 01:30N 35°30' E 139°53'612.8
2018-Feb-14 01:00N 35°27' E 139°60'2 4.0
2018-Feb-14 00:30N 35°29' E 139°58'0 0.1
2018-Feb-13 23:58N 35°29' E 139°58'0 0.2
2018-Feb-13 23:30N 35°28' E 139°58'0 0.2
2018-Feb-13 22:56N 35°29' E 139°58'0 0.1
2018-Feb-13 22:28N 35°29' E 139°58'0 0.2
2018-Feb-13 21:54N 35°29' E 139°58'0 0.1
2018-Feb-13 21:00N 35°29' E 139°58'0 0.0
2018-Feb-13 20:15N 35°29' E 139°58'0 0.2
2018-Feb-13 19:56N 35°29' E 139°58'0 0.0
2018-Feb-13 19:24N 35°29' E 139°58'0 0.1
2018-Feb-13 18:42N 35°29' E 139°58'0 0.2
2018-Feb-13 18:30N 35°29' E 139°58'0 0.2
2018-Feb-13 17:55N 35°29' E 139°58'0 0.1
2018-Feb-13 17:27N 35°29' E 139°58'0 0.1
2018-Feb-13 16:58N 35°29' E 139°58'0 0.1
2018-Feb-13 16:27N 35°29' E 139°58'0 0.1
2018-Feb-13 15:52N 35°29' E 139°58'0 0.2
2018-Feb-13 15:26N 35°29' E 139°58'0 0.4
2018-Feb-13 15:00N 35°29' E 139°58'0 0.0
2018-Feb-13 14:30N 35°29' E 139°58'0 0.1
2018-Feb-13 13:52N 35°29' E 139°58'0 0.1
2018-Feb-13 13:11N 35°29' E 139°58'0 0.5
2018-Feb-13 12:55N 35°29' E 139°58'0 0.1
2018-Feb-13 12:29N 35°29' E 139°58'0 0.2
2018-Feb-13 11:58N 35°29' E 139°58'0 0.0
2018-Feb-13 11:24N 35°29' E 139°58'0 0.4
2018-Feb-13 10:55N 35°29' E 139°58'0 0.1
2018-Feb-13 10:27N 35°29' E 139°58'0 0.0
2018-Feb-13 09:54N 35°29' E 139°58'0 0.1
2018-Feb-13 09:26N 35°29' E 139°58'0 0.4
2018-Feb-13 08:41N 35°29' E 139°58'0 1.0
2018-Feb-13 08:29N 35°29' E 139°58'0 0.2
2018-Feb-13 08:00N 35°29' E 139°58'0 0.2
2018-Feb-13 07:28N 35°29' E 139°58'0 0.3
2018-Feb-13 06:56N 35°29' E 139°58'0 0.3
2018-Feb-13 06:25N 35°29' E 139°58'0 0.1
2018-Feb-13 06:00N 35°29' E 139°58'0 0.0
2018-Feb-13 05:24N 35°29' E 139°58'0 0.3
2018-Feb-13 04:58N 35°29' E 139°58'0 0.6
2018-Feb-13 04:25N 35°29' E 139°58'0 0.2
2018-Feb-13 04:00N 35°29' E 139°58'0 0.5
2018-Feb-13 03:30N 35°29' E 139°58'0 0.5
2018-Feb-13 02:59N 35°29' E 139°58'0 0.6
2018-Feb-13 02:28N 35°29' E 139°58'0 0.1
2018-Feb-13 01:59N 35°29' E 139°58'0 0.3
2018-Feb-13 01:22N 35°29' E 139°58'0 0.4
2018-Feb-13 00:58N 35°29' E 139°58'0 0.5
2018-Feb-13 00:28N 35°29' E 139°58'0 0.2
2018-Feb-13 00:00N 35°29' E 139°58'2 3.1
2018-Feb-12 23:27N 35°30' E 139°57'612.8
2018-Feb-12 23:00N 35°31' E 139°50'5 8.1
2018-Feb-12 22:27N 35°31' E 139°44'0 0.0
2018-Feb-12 21:57N 35°31' E 139°44'0 0.0
2018-Feb-12 21:27N 35°31' E 139°44'0 0.0
2018-Feb-12 20:54N 35°31' E 139°44'0 0.0
2018-Feb-12 20:30N 35°31' E 139°44'0 0.0
2018-Feb-12 19:51N 35°31' E 139°44'0 0.0
2018-Feb-12 19:30N 35°31' E 139°44'0 0.0
2018-Feb-12 18:54N 35°31' E 139°44'0 0.0
2018-Feb-12 18:30N 35°31' E 139°44'0 0.0
2018-Feb-12 17:54N 35°31' E 139°44'0 0.0
2018-Feb-12 17:30N 35°31' E 139°44'0 0.0
2018-Feb-12 17:00N 35°31' E 139°44'0 0.0
2018-Feb-12 16:30N 35°31' E 139°44'0 0.0
2018-Feb-12 16:00N 35°31' E 139°44'0 0.0
2018-Feb-12 15:15N 35°31' E 139°44'0 0.0
2018-Feb-12 15:00N 35°31' E 139°44'0 0.0
2018-Feb-12 14:30N 35°31' E 139°44'0 0.0
2018-Feb-12 13:57N 35°31' E 139°44'0 0.0
2018-Feb-12 13:27N 35°31' E 139°44'0 0.0
2018-Feb-12 13:00N 35°31' E 139°44'0 0.0
2018-Feb-12 12:27N 35°31' E 139°44'0 0.0
2018-Feb-12 11:59N 35°31' E 139°44'0 0.0
2018-Feb-12 11:05N 35°31' E 139°44'0 0.0
2018-Feb-12 09:29N 35°31' E 139°44'0 0.0
2018-Feb-12 07:05N 35°31' E 139°44'0 0.0
2018-Feb-12 06:59N 35°31' E 139°44'0 0.0
2018-Feb-12 04:32N 35°31' E 139°44'0 0.1
2018-Feb-12 04:29N 35°31' E 139°44'0 0.0
2018-Feb-12 03:47N 35°31' E 139°44'0 0.0
2018-Feb-12 03:20N 35°31' E 139°44'0 0.0
2018-Feb-12 02:56N 35°31' E 139°44'0 0.0
2018-Feb-12 02:26N 35°31' E 139°44'0 0.0
2018-Feb-12 01:56N 35°31' E 139°44'0 0.0
2018-Feb-12 01:07N 35°31' E 139°44'0 0.5
2018-Feb-12 01:00N 35°31' E 139°44'3 5.8
2018-Feb-12 00:30N 35°29' E 139°42'510.9
2018-Feb-12 00:00N 35°25' E 139°47'5 9.2
2018-Feb-11 23:29N 35°21' E 139°45'511.1
2018-Feb-11 23:00N 35°16' E 139°46'5 9.0
2018-Feb-11 22:29N 35°11' E 139°47'1 2.2
2018-Feb-11 22:00N 35°10' E 139°48'4 7.7
2018-Feb-11 21:30N 35°14' E 139°45'510.0
2018-Feb-11 21:00N 35°17' E 139°41'0 0.1
2018-Feb-11 20:27N 35°17' E 139°41'0 0.0
2018-Feb-11 20:00N 35°17' E 139°41'0 0.0
2018-Feb-11 19:27N 35°17' E 139°41'0 0.0
2018-Feb-11 18:55N 35°17' E 139°41'0 0.0
2018-Feb-11 18:28N 35°17' E 139°41'0 0.0
2018-Feb-11 17:58N 35°17' E 139°41'0 0.0
2018-Feb-11 17:28N 35°17' E 139°41'0 0.0
2018-Feb-11 16:58N 35°17' E 139°41'0 0.0
2018-Feb-11 16:22N 35°17' E 139°41'0 0.0
2018-Feb-11 15:58N 35°17' E 139°41'0 0.0
2018-Feb-11 15:25N 35°17' E 139°41'0 0.0
2018-Feb-11 14:58N 35°17' E 139°41'0 0.0
2018-Feb-11 14:22N 35°17' E 139°41'0 0.0
2018-Feb-11 13:52N 35°17' E 139°41'0 0.0
2018-Feb-11 13:28N 35°17' E 139°41'0 0.0
2018-Feb-11 12:55N 35°17' E 139°41'0 0.0
2018-Feb-11 12:28N 35°17' E 139°41'0 0.0
2018-Feb-11 11:58N 35°17' E 139°41'0 0.0
2018-Feb-11 11:28N 35°17' E 139°41'0 0.0
2018-Feb-11 10:55N 35°17' E 139°41'0 0.0
2018-Feb-11 10:28N 35°17' E 139°41'0 0.0
2018-Feb-11 09:55N 35°17' E 139°41'0 0.0
2018-Feb-11 09:28N 35°17' E 139°41'0 0.0
2018-Feb-11 08:58N 35°17' E 139°41'0 0.0
2018-Feb-11 08:24N 35°17' E 139°41'2 4.5
2018-Feb-11 08:00N 35°18' E 139°43'0 0.1
2018-Feb-11 07:28N 35°18' E 139°43'0 0.6
2018-Feb-11 06:57N 35°18' E 139°42'2 3.1
2018-Feb-11 06:27N 35°17' E 139°41'0 0.0
2018-Feb-11 05:57N 35°17' E 139°41'0 0.0
2018-Feb-11 05:09N 35°17' E 139°41'0 1.6
2018-Feb-11 04:57N 35°17' E 139°41'1 1.0
2018-Feb-11 03:46N 35°18' E 139°42'0 0.3
2018-Feb-11 03:08N 35°18' E 139°42'0 1.3
2018-Feb-11 02:51N 35°18' E 139°42'0 0.2
2018-Feb-11 02:30N 35°18' E 139°42'0 0.3
2018-Feb-11 01:36N 35°18' E 139°42'0 0.3
2018-Feb-11 00:48N 35°18' E 139°42'0 0.5
2018-Feb-11 00:30N 35°18' E 139°42'0 0.4
2018-Feb-10 23:45N 35°18' E 139°43'0 1.4
2018-Feb-10 23:24N 35°18' E 139°42'0 0.6
2018-Feb-10 22:57N 35°18' E 139°42'1 1.1
2018-Feb-10 22:28N 35°17' E 139°42'0 0.3
2018-Feb-10 21:27N 35°18' E 139°42'2 2.8
2018-Feb-10 20:53N 35°17' E 139°41'0 0.0
2018-Feb-10 20:28N 35°17' E 139°41'0 0.0
2018-Feb-10 19:58N 35°17' E 139°41'0 0.0
2018-Feb-10 19:28N 35°17' E 139°41'0 0.0
2018-Feb-10 18:55N 35°17' E 139°41'0 0.0
2018-Feb-10 18:22N 35°17' E 139°41'0 0.0
2018-Feb-10 17:52N 35°17' E 139°41'0 0.0
2018-Feb-10 17:28N 35°17' E 139°41'0 0.0
2018-Feb-10 16:58N 35°17' E 139°41'0 0.0
2018-Feb-10 16:28N 35°17' E 139°41'0 0.0
2018-Feb-10 15:58N 35°17' E 139°41'0 0.0
2018-Feb-10 15:10N 35°17' E 139°41'0 0.0
2018-Feb-10 14:51N 35°17' E 139°41'0 0.0
2018-Feb-10 14:27N 35°17' E 139°41'0 0.0
2018-Feb-10 14:00N 35°17' E 139°41'0 0.0
2018-Feb-10 13:30N 35°17' E 139°41'0 0.0
2018-Feb-10 13:00N 35°17' E 139°41'0 0.0
2018-Feb-10 12:27N 35°17' E 139°41'0 0.0
2018-Feb-10 12:00N 35°17' E 139°41'0 0.0
2018-Feb-10 11:30N 35°17' E 139°41'0 0.0
2018-Feb-10 10:54N 35°17' E 139°41'0 0.0
2018-Feb-10 10:30N 35°17' E 139°41'0 0.0
2018-Feb-10 10:00N 35°17' E 139°41'0 0.0
2018-Feb-10 09:30N 35°17' E 139°41'0 0.0
2018-Feb-10 09:00N 35°17' E 139°41'0 0.0
2018-Feb-10 08:27N 35°17' E 139°41'0 0.0
2018-Feb-10 08:00N 35°17' E 139°41'0 0.0
2018-Feb-10 07:27N 35°17' E 139°41'0 0.0
2018-Feb-10 06:57N 35°17' E 139°41'0 0.0
2018-Feb-10 06:30N 35°17' E 139°41'0 0.0
2018-Feb-10 05:57N 35°17' E 139°41'0 0.0
2018-Feb-10 05:27N 35°17' E 139°41'0 0.0
2018-Feb-10 04:24N 35°17' E 139°41'2 3.5
2018-Feb-10 03:57N 35°18' E 139°42'0 0.3
2018-Feb-10 02:56N 35°18' E 139°42'0 0.3
2018-Feb-10 02:30N 35°18' E 139°43'0 0.2
2018-Feb-10 01:56N 35°18' E 139°42'0 0.2
2018-Feb-10 01:25N 35°18' E 139°42'1 2.1
2018-Feb-10 00:57N 35°17' E 139°41'1 2.3
2018-Feb-10 00:30N 35°18' E 139°42'0 0.3
2018-Feb-09 23:42N 35°18' E 139°42'0 0.2
2018-Feb-09 23:14N 35°18' E 139°42'0 0.5
2018-Feb-09 22:59N 35°18' E 139°42'0 0.2
2018-Feb-09 22:46N 35°18' E 139°43'0 0.0
2018-Feb-09 01:00N 35°18' E 139°43'1 0.5
2018-Feb-08 23:30N 35°19' E 139°42'  
Track history (hours):
 
Tides and Currents Weather Stations Pressure Air Temp Water Temp Dewpoint Dewpoint Depression Visibility Wind Speed Wind Dir Waves Ship Positions

Kiyotaki

Last reported at 2018-Feb-17 23:27 UTC. Time now 2018-Feb-17 23:54 UTC.
Position N 35°17' E 139°41'.

Length 36 m.

Type: Tug. MMSI: 431100981.

Date/timePositionNaut miles runAvg speedWind from/ knotsBaromVisibWave heightAir tempDewpointWater temp
2018-Feb-17 23:27N 35°17' E 139°41'0 0.0
2018-Feb-17 23:00N 35°17' E 139°41'0 0.0
2018-Feb-17 22:15N 35°17' E 139°41'0 0.0
2018-Feb-17 21:57N 35°17' E 139°41'0 0.0
2018-Feb-17 21:30N 35°17' E 139°41'0 0.0
2018-Feb-17 21:00N 35°17' E 139°41'0 0.0
2018-Feb-17 20:30N 35°17' E 139°41'0 0.0
2018-Feb-17 19:57N 35°17' E 139°41'0 0.0
2018-Feb-17 19:27N 35°17' E 139°41'0 0.0
2018-Feb-17 19:00N 35°17' E 139°41'0 0.0
2018-Feb-17 18:24N 35°17' E 139°41'0 0.0
2018-Feb-17 17:57N 35°17' E 139°41'0 0.0
2018-Feb-17 17:30N 35°17' E 139°41'0 0.0
2018-Feb-17 17:00N 35°17' E 139°41'0 0.0
2018-Feb-17 16:30N 35°17' E 139°41'0 0.0
2018-Feb-17 15:51N 35°17' E 139°41'0 0.0
2018-Feb-17 15:30N 35°17' E 139°41'0 0.0
2018-Feb-17 15:00N 35°17' E 139°41'0 0.0
2018-Feb-17 14:30N 35°17' E 139°41'0 0.0
2018-Feb-17 14:00N 35°17' E 139°41'0 0.0
2018-Feb-17 13:30N 35°17' E 139°41'0 0.0
2018-Feb-17 13:00N 35°17' E 139°41'0 0.0
2018-Feb-17 12:29N 35°17' E 139°41'4 7.3
2018-Feb-17 11:58N 35°16' E 139°45'2 4.5
2018-Feb-17 11:29N 35°14' E 139°46'612.8
2018-Feb-17 11:00N 35°19' E 139°43'4 7.3
2018-Feb-17 10:28N 35°23' E 139°42'1 3.1
2018-Feb-17 10:00N 35°22' E 139°41'4 7.9
2018-Feb-17 09:28N 35°18' E 139°42'1 2.3
2018-Feb-17 08:57N 35°17' E 139°41'0 0.0
2018-Feb-17 08:27N 35°17' E 139°41'0 0.0
2018-Feb-17 08:00N 35°17' E 139°41'0 0.0
2018-Feb-17 07:30N 35°17' E 139°41'1 2.1
2018-Feb-17 07:00N 35°18' E 139°41'2 2.8
2018-Feb-17 06:25N 35°19' E 139°40'0 0.3
2018-Feb-17 05:59N 35°19' E 139°40'0 0.3
2018-Feb-17 05:28N 35°19' E 139°40'0 0.4
2018-Feb-17 04:55N 35°19' E 139°40'0 0.3
2018-Feb-17 04:20N 35°19' E 139°40'0 0.8
2018-Feb-17 04:00N 35°19' E 139°40'2 4.3
2018-Feb-17 03:28N 35°17' E 139°41'0 0.0
2018-Feb-17 02:43N 35°17' E 139°41'0 0.0
2018-Feb-17 02:22N 35°17' E 139°41'0 0.0
2018-Feb-17 01:55N 35°17' E 139°41'0 0.0
2018-Feb-17 01:28N 35°17' E 139°41'2 3.2
2018-Feb-17 00:59N 35°18' E 139°42'1 1.1
2018-Feb-17 00:28N 35°18' E 139°43'0 0.7
2018-Feb-16 23:57N 35°18' E 139°43'0 0.6
2018-Feb-16 23:30N 35°18' E 139°43'0 0.5
2018-Feb-16 23:00N 35°18' E 139°43'0 0.8
2018-Feb-16 22:30N 35°18' E 139°43'2 3.3
2018-Feb-16 21:54N 35°17' E 139°41'0 0.0
2018-Feb-16 21:25N 35°17' E 139°41'0 0.0
2018-Feb-16 20:55N 35°17' E 139°41'0 0.0
2018-Feb-16 20:28N 35°17' E 139°41'0 0.0
2018-Feb-16 19:58N 35°17' E 139°41'0 0.0
2018-Feb-16 19:28N 35°17' E 139°41'0 0.0
2018-Feb-16 18:58N 35°17' E 139°41'0 0.0
2018-Feb-16 18:27N 35°17' E 139°41'0 0.0
2018-Feb-16 17:57N 35°17' E 139°41'0 0.0
2018-Feb-16 17:27N 35°17' E 139°41'0 0.0
2018-Feb-16 16:57N 35°17' E 139°41'0 0.0
2018-Feb-16 16:14N 35°17' E 139°41'0 0.0
2018-Feb-16 15:44N 35°17' E 139°41'0 0.0
2018-Feb-16 15:26N 35°17' E 139°41'0 0.0
2018-Feb-16 14:59N 35°17' E 139°41'0 0.0
2018-Feb-16 14:29N 35°17' E 139°41'0 0.0
2018-Feb-16 13:59N 35°17' E 139°41'0 0.0
2018-Feb-16 13:26N 35°17' E 139°41'0 0.0
2018-Feb-16 12:58N 35°17' E 139°41'0 0.0
2018-Feb-16 12:28N 35°17' E 139°41'0 0.0
2018-Feb-16 11:55N 35°17' E 139°41'0 0.0
2018-Feb-16 11:22N 35°17' E 139°41'0 0.0
2018-Feb-16 10:55N 35°17' E 139°41'0 0.0
2018-Feb-16 10:25N 35°17' E 139°41'0 0.0
2018-Feb-16 09:58N 35°17' E 139°41'0 0.0
2018-Feb-16 09:25N 35°17' E 139°41'0 0.0
2018-Feb-16 08:58N 35°17' E 139°41'0 0.0
2018-Feb-16 08:28N 35°17' E 139°41'0 0.0
2018-Feb-16 07:58N 35°17' E 139°41'0 0.0
2018-Feb-16 07:25N 35°17' E 139°41'0 0.0
2018-Feb-16 06:55N 35°17' E 139°41'0 0.0
2018-Feb-16 06:28N 35°17' E 139°41'0 0.0
2018-Feb-16 05:55N 35°17' E 139°41'0 0.0
2018-Feb-16 05:25N 35°17' E 139°41'0 0.0
2018-Feb-16 04:55N 35°17' E 139°41'0 0.0
2018-Feb-16 04:25N 35°17' E 139°41'1 2.3
2018-Feb-16 04:00N 35°18' E 139°42'1 2.0
2018-Feb-16 03:30N 35°18' E 139°42'0 0.2
2018-Feb-16 02:57N 35°18' E 139°43'0 0.4
2018-Feb-16 02:26N 35°18' E 139°43'0 0.6
2018-Feb-16 01:56N 35°18' E 139°43'1 2.2
2018-Feb-16 01:30N 35°17' E 139°43'0 0.3
2018-Feb-16 00:58N 35°18' E 139°43'1 2.7
2018-Feb-16 00:30N 35°17' E 139°41'0 0.7
2018-Feb-16 00:00N 35°17' E 139°41'1 3.0
2018-Feb-15 23:30N 35°18' E 139°42'1 2.7
2018-Feb-15 23:00N 35°19' E 139°40'0 0.9
2018-Feb-15 22:30N 35°19' E 139°40'0 0.2
2018-Feb-15 22:00N 35°19' E 139°40'3 4.9
2018-Feb-15 21:29N 35°17' E 139°41'0 0.0
2018-Feb-15 21:00N 35°17' E 139°41'0 0.0
2018-Feb-15 20:27N 35°17' E 139°41'0 0.0
2018-Feb-15 19:57N 35°17' E 139°41'0 0.0
2018-Feb-15 19:30N 35°17' E 139°41'0 0.0
2018-Feb-15 18:57N 35°17' E 139°41'0 0.0
2018-Feb-15 18:27N 35°17' E 139°41'0 0.0
2018-Feb-15 18:00N 35°17' E 139°41'0 0.0
2018-Feb-15 17:27N 35°17' E 139°41'0 0.0
2018-Feb-15 17:00N 35°17' E 139°41'0 0.0
2018-Feb-15 16:27N 35°17' E 139°41'0 0.0
2018-Feb-15 15:51N 35°17' E 139°41'0 0.0
2018-Feb-15 15:27N 35°17' E 139°41'0 0.0
2018-Feb-15 15:00N 35°17' E 139°41'0 0.0
2018-Feb-15 14:30N 35°17' E 139°41'0 0.0
2018-Feb-15 13:57N 35°17' E 139°41'0 0.0
2018-Feb-15 13:27N 35°17' E 139°41'0 0.0
2018-Feb-15 13:00N 35°17' E 139°41'0 0.0
2018-Feb-15 12:30N 35°17' E 139°41'0 0.0
2018-Feb-15 12:00N 35°17' E 139°41'0 0.0
2018-Feb-15 11:27N 35°17' E 139°41'0 0.0
2018-Feb-15 11:00N 35°17' E 139°41'0 0.0
2018-Feb-15 10:18N 35°17' E 139°41'0 0.0
2018-Feb-15 10:00N 35°17' E 139°41'0 0.0
2018-Feb-15 09:30N 35°17' E 139°41'0 0.0
2018-Feb-15 08:51N 35°17' E 139°41'0 0.0
2018-Feb-15 08:27N 35°17' E 139°41'0 0.0
2018-Feb-15 07:57N 35°17' E 139°41'0 0.0
2018-Feb-15 07:27N 35°17' E 139°41'0 0.0
2018-Feb-15 06:57N 35°17' E 139°41'2 2.1
2018-Feb-15 06:09N 35°18' E 139°42'0 0.0
2018-Feb-15 05:57N 35°18' E 139°42'0 0.0
2018-Feb-15 05:18N 35°18' E 139°42'0 0.0
2018-Feb-15 04:54N 35°18' E 139°42'0 0.0
2018-Feb-15 04:30N 35°18' E 139°42'0 0.0
2018-Feb-15 03:57N 35°18' E 139°42'0 0.0
2018-Feb-15 03:18N 35°18' E 139°42'2 5.0
2018-Feb-15 02:59N 35°17' E 139°41'2 2.3
2018-Feb-15 02:15N 35°18' E 139°42'0 0.1
2018-Feb-15 01:47N 35°18' E 139°42'0 0.9
2018-Feb-15 01:21N 35°18' E 139°42'1 1.0
2018-Feb-15 00:52N 35°18' E 139°42'1 3.5
2018-Feb-15 00:29N 35°17' E 139°41'1 2.1
2018-Feb-15 00:01N 35°18' E 139°42'1 1.0
2018-Feb-14 23:28N 35°17' E 139°41'0 0.2
2018-Feb-14 23:00N 35°17' E 139°41'1 1.9
2018-Feb-14 22:30N 35°18' E 139°42'0 0.2
2018-Feb-14 21:51N 35°18' E 139°42'0 0.4
2018-Feb-14 21:30N 35°17' E 139°42'3 5.0
2018-Feb-14 20:59N 35°20' E 139°42'714.0
2018-Feb-14 20:28N 35°27' E 139°44'4 7.8
2018-Feb-14 20:00N 35°30' E 139°46'1 2.1
2018-Feb-14 19:31N 35°31' E 139°44'0 0.0
2018-Feb-14 18:56N 35°31' E 139°44'0 0.0
2018-Feb-14 18:29N 35°31' E 139°44'0 0.0
2018-Feb-14 17:59N 35°31' E 139°44'0 0.0
2018-Feb-14 17:29N 35°31' E 139°44'0 0.0
2018-Feb-14 16:59N 35°31' E 139°44'0 0.0
2018-Feb-14 16:26N 35°31' E 139°44'0 0.0
2018-Feb-14 15:53N 35°31' E 139°44'0 0.0
2018-Feb-14 15:29N 35°31' E 139°44'0 0.0
2018-Feb-14 14:59N 35°31' E 139°44'0 0.0
2018-Feb-14 14:14N 35°31' E 139°44'0 0.0
2018-Feb-14 13:59N 35°31' E 139°44'0 0.0
2018-Feb-14 13:28N 35°31' E 139°44'0 0.0
2018-Feb-14 12:49N 35°31' E 139°44'0 0.0
2018-Feb-14 12:25N 35°31' E 139°44'0 0.0
2018-Feb-14 11:58N 35°31' E 139°44'0 0.0
2018-Feb-14 11:28N 35°31' E 139°44'0 0.0
2018-Feb-14 10:55N 35°31' E 139°44'0 0.0
2018-Feb-14 10:28N 35°31' E 139°44'0 0.0
2018-Feb-14 09:58N 35°31' E 139°44'0 0.0
2018-Feb-14 09:28N 35°31' E 139°44'0 0.0
2018-Feb-14 08:49N 35°31' E 139°44'0 0.0
2018-Feb-14 08:28N 35°31' E 139°44'0 0.0
2018-Feb-14 07:46N 35°31' E 139°44'0 0.0
2018-Feb-14 07:16N 35°31' E 139°44'0 0.0
2018-Feb-14 06:55N 35°31' E 139°44'0 0.0
2018-Feb-14 06:28N 35°31' E 139°44'0 0.0
2018-Feb-14 05:58N 35°31' E 139°44'0 0.0
2018-Feb-14 05:28N 35°31' E 139°44'0 0.0
2018-Feb-14 04:58N 35°31' E 139°44'0 0.0
2018-Feb-14 04:28N 35°31' E 139°44'0 0.0
2018-Feb-14 03:55N 35°31' E 139°44'0 0.0
2018-Feb-14 03:25N 35°31' E 139°44'0 0.0
2018-Feb-14 02:55N 35°31' E 139°44'0 0.0
2018-Feb-14 02:13N 35°31' E 139°44'0 1.6
2018-Feb-14 01:58N 35°31' E 139°45'613.1
2018-Feb-14 01:30N 35°30' E 139°53'612.8
2018-Feb-14 01:00N 35°27' E 139°60'2 4.0
2018-Feb-14 00:30N 35°29' E 139°58'0 0.1
2018-Feb-13 23:58N 35°29' E 139°58'0 0.2
2018-Feb-13 23:30N 35°28' E 139°58'0 0.2
2018-Feb-13 22:56N 35°29' E 139°58'0 0.1
2018-Feb-13 22:28N 35°29' E 139°58'0 0.2
2018-Feb-13 21:54N 35°29' E 139°58'0 0.1
2018-Feb-13 21:00N 35°29' E 139°58'0 0.0
2018-Feb-13 20:15N 35°29' E 139°58'0 0.2
2018-Feb-13 19:56N 35°29' E 139°58'0 0.0
2018-Feb-13 19:24N 35°29' E 139°58'0 0.1
2018-Feb-13 18:42N 35°29' E 139°58'0 0.2
2018-Feb-13 18:30N 35°29' E 139°58'0 0.2
2018-Feb-13 17:55N 35°29' E 139°58'0 0.1
2018-Feb-13 17:27N 35°29' E 139°58'0 0.1
2018-Feb-13 16:58N 35°29' E 139°58'0 0.1
2018-Feb-13 16:27N 35°29' E 139°58'0 0.1
2018-Feb-13 15:52N 35°29' E 139°58'0 0.2
2018-Feb-13 15:26N 35°29' E 139°58'0 0.4
2018-Feb-13 15:00N 35°29' E 139°58'0 0.0
2018-Feb-13 14:30N 35°29' E 139°58'0 0.1
2018-Feb-13 13:52N 35°29' E 139°58'0 0.1
2018-Feb-13 13:11N 35°29' E 139°58'0 0.5
2018-Feb-13 12:55N 35°29' E 139°58'0 0.1
2018-Feb-13 12:29N 35°29' E 139°58'0 0.2
2018-Feb-13 11:58N 35°29' E 139°58'0 0.0
2018-Feb-13 11:24N 35°29' E 139°58'0 0.4
2018-Feb-13 10:55N 35°29' E 139°58'0 0.1
2018-Feb-13 10:27N 35°29' E 139°58'0 0.0
2018-Feb-13 09:54N 35°29' E 139°58'0 0.1
2018-Feb-13 09:26N 35°29' E 139°58'0 0.4
2018-Feb-13 08:41N 35°29' E 139°58'0 1.0
2018-Feb-13 08:29N 35°29' E 139°58'0 0.2
2018-Feb-13 08:00N 35°29' E 139°58'0 0.2
2018-Feb-13 07:28N 35°29' E 139°58'0 0.3
2018-Feb-13 06:56N 35°29' E 139°58'0 0.3
2018-Feb-13 06:25N 35°29' E 139°58'0 0.1
2018-Feb-13 06:00N 35°29' E 139°58'0 0.0
2018-Feb-13 05:24N 35°29' E 139°58'0 0.3
2018-Feb-13 04:58N 35°29' E 139°58'0 0.6
2018-Feb-13 04:25N 35°29' E 139°58'0 0.2
2018-Feb-13 04:00N 35°29' E 139°58'0 0.5
2018-Feb-13 03:30N 35°29' E 139°58'0 0.5
2018-Feb-13 02:59N 35°29' E 139°58'0 0.6
2018-Feb-13 02:28N 35°29' E 139°58'0 0.1
2018-Feb-13 01:59N 35°29' E 139°58'0 0.3
2018-Feb-13 01:22N 35°29' E 139°58'0 0.4
2018-Feb-13 00:58N 35°29' E 139°58'0 0.5
2018-Feb-13 00:28N 35°29' E 139°58'0 0.2
2018-Feb-13 00:00N 35°29' E 139°58'2 3.1
2018-Feb-12 23:27N 35°30' E 139°57'612.8
2018-Feb-12 23:00N 35°31' E 139°50'5 8.1
2018-Feb-12 22:27N 35°31' E 139°44'0 0.0
2018-Feb-12 21:57N 35°31' E 139°44'0 0.0
2018-Feb-12 21:27N 35°31' E 139°44'0 0.0
2018-Feb-12 20:54N 35°31' E 139°44'0 0.0
2018-Feb-12 20:30N 35°31' E 139°44'0 0.0
2018-Feb-12 19:51N 35°31' E 139°44'0 0.0
2018-Feb-12 19:30N 35°31' E 139°44'0 0.0
2018-Feb-12 18:54N 35°31' E 139°44'0 0.0
2018-Feb-12 18:30N 35°31' E 139°44'0 0.0
2018-Feb-12 17:54N 35°31' E 139°44'0 0.0
2018-Feb-12 17:30N 35°31' E 139°44'0 0.0
2018-Feb-12 17:00N 35°31' E 139°44'0 0.0
2018-Feb-12 16:30N 35°31' E 139°44'0 0.0
2018-Feb-12 16:00N 35°31' E 139°44'0 0.0
2018-Feb-12 15:15N 35°31' E 139°44'0 0.0
2018-Feb-12 15:00N 35°31' E 139°44'0 0.0
2018-Feb-12 14:30N 35°31' E 139°44'0 0.0
2018-Feb-12 13:57N 35°31' E 139°44'0 0.0
2018-Feb-12 13:27N 35°31' E 139°44'0 0.0
2018-Feb-12 13:00N 35°31' E 139°44'0 0.0
2018-Feb-12 12:27N 35°31' E 139°44'0 0.0
2018-Feb-12 11:59N 35°31' E 139°44'0 0.0
2018-Feb-12 11:05N 35°31' E 139°44'0 0.0
2018-Feb-12 09:29N 35°31' E 139°44'0 0.0
2018-Feb-12 07:05N 35°31' E 139°44'0 0.0
2018-Feb-12 06:59N 35°31' E 139°44'0 0.0
2018-Feb-12 04:32N 35°31' E 139°44'0 0.1
2018-Feb-12 04:29N 35°31' E 139°44'0 0.0
2018-Feb-12 03:47N 35°31' E 139°44'0 0.0
2018-Feb-12 03:20N 35°31' E 139°44'0 0.0
2018-Feb-12 02:56N 35°31' E 139°44'0 0.0
2018-Feb-12 02:26N 35°31' E 139°44'0 0.0
2018-Feb-12 01:56N 35°31' E 139°44'0 0.0
2018-Feb-12 01:07N 35°31' E 139°44'0 0.5
2018-Feb-12 01:00N 35°31' E 139°44'3 5.8
2018-Feb-12 00:30N 35°29' E 139°42'510.9
2018-Feb-12 00:00N 35°25' E 139°47'5 9.2
2018-Feb-11 23:29N 35°21' E 139°45'511.1
2018-Feb-11 23:00N 35°16' E 139°46'5 9.0
2018-Feb-11 22:29N 35°11' E 139°47'1 2.2
2018-Feb-11 22:00N 35°10' E 139°48'4 7.7
2018-Feb-11 21:30N 35°14' E 139°45'510.0
2018-Feb-11 21:00N 35°17' E 139°41'0 0.1
2018-Feb-11 20:27N 35°17' E 139°41'0 0.0
2018-Feb-11 20:00N 35°17' E 139°41'0 0.0
2018-Feb-11 19:27N 35°17' E 139°41'0 0.0
2018-Feb-11 18:55N 35°17' E 139°41'0 0.0
2018-Feb-11 18:28N 35°17' E 139°41'0 0.0
2018-Feb-11 17:58N 35°17' E 139°41'0 0.0
2018-Feb-11 17:28N 35°17' E 139°41'0 0.0
2018-Feb-11 16:58N 35°17' E 139°41'0 0.0
2018-Feb-11 16:22N 35°17' E 139°41'0 0.0
2018-Feb-11 15:58N 35°17' E 139°41'0 0.0
2018-Feb-11 15:25N 35°17' E 139°41'0 0.0
2018-Feb-11 14:58N 35°17' E 139°41'0 0.0
2018-Feb-11 14:22N 35°17' E 139°41'0 0.0
2018-Feb-11 13:52N 35°17' E 139°41'0 0.0
2018-Feb-11 13:28N 35°17' E 139°41'0 0.0
2018-Feb-11 12:55N 35°17' E 139°41'0 0.0
2018-Feb-11 12:28N 35°17' E 139°41'0 0.0
2018-Feb-11 11:58N 35°17' E 139°41'0 0.0
2018-Feb-11 11:28N 35°17' E 139°41'0 0.0
2018-Feb-11 10:55N 35°17' E 139°41'0 0.0
2018-Feb-11 10:28N 35°17' E 139°41'0 0.0
2018-Feb-11 09:55N 35°17' E 139°41'0 0.0
2018-Feb-11 09:28N 35°17' E 139°41'0 0.0
2018-Feb-11 08:58N 35°17' E 139°41'0 0.0
2018-Feb-11 08:24N 35°17' E 139°41'2 4.5
2018-Feb-11 08:00N 35°18' E 139°43'0 0.1
2018-Feb-11 07:28N 35°18' E 139°43'0 0.6
2018-Feb-11 06:57N 35°18' E 139°42'2 3.1
2018-Feb-11 06:27N 35°17' E 139°41'0 0.0
2018-Feb-11 05:57N 35°17' E 139°41'0 0.0
2018-Feb-11 05:09N 35°17' E 139°41'0 1.6
2018-Feb-11 04:57N 35°17' E 139°41'1 1.0
2018-Feb-11 03:46N 35°18' E 139°42'0 0.3
2018-Feb-11 03:08N 35°18' E 139°42'0 1.3
2018-Feb-11 02:51N 35°18' E 139°42'0 0.2
2018-Feb-11 02:30N 35°18' E 139°42'0 0.3
2018-Feb-11 01:36N 35°18' E 139°42'0 0.3
2018-Feb-11 00:48N 35°18' E 139°42'0 0.5
2018-Feb-11 00:30N 35°18' E 139°42'0 0.4
2018-Feb-10 23:45N 35°18' E 139°43'0 1.4
2018-Feb-10 23:24N 35°18' E 139°42'0 0.6
2018-Feb-10 22:57N 35°18' E 139°42'1 1.1
2018-Feb-10 22:28N 35°17' E 139°42'0 0.3
2018-Feb-10 21:27N 35°18' E 139°42'2 2.8
2018-Feb-10 20:53N 35°17' E 139°41'0 0.0
2018-Feb-10 20:28N 35°17' E 139°41'0 0.0
2018-Feb-10 19:58N 35°17' E 139°41'0 0.0
2018-Feb-10 19:28N 35°17' E 139°41'0 0.0
2018-Feb-10 18:55N 35°17' E 139°41'0 0.0
2018-Feb-10 18:22N 35°17' E 139°41'0 0.0
2018-Feb-10 17:52N 35°17' E 139°41'0 0.0
2018-Feb-10 17:28N 35°17' E 139°41'0 0.0
2018-Feb-10 16:58N 35°17' E 139°41'0 0.0
2018-Feb-10 16:28N 35°17' E 139°41'0 0.0
2018-Feb-10 15:58N 35°17' E 139°41'0 0.0
2018-Feb-10 15:10N 35°17' E 139°41'0 0.0
2018-Feb-10 14:51N 35°17' E 139°41'0 0.0
2018-Feb-10 14:27N 35°17' E 139°41'0 0.0
2018-Feb-10 14:00N 35°17' E 139°41'0 0.0
2018-Feb-10 13:30N 35°17' E 139°41'0 0.0
2018-Feb-10 13:00N 35°17' E 139°41'0 0.0
2018-Feb-10 12:27N 35°17' E 139°41'0 0.0
2018-Feb-10 12:00N 35°17' E 139°41'0 0.0
2018-Feb-10 11:30N 35°17' E 139°41'0 0.0
2018-Feb-10 10:54N 35°17' E 139°41'0 0.0
2018-Feb-10 10:30N 35°17' E 139°41'0 0.0
2018-Feb-10 10:00N 35°17' E 139°41'0 0.0
2018-Feb-10 09:30N 35°17' E 139°41'0 0.0
2018-Feb-10 09:00N 35°17' E 139°41'0 0.0
2018-Feb-10 08:27N 35°17' E 139°41'0 0.0
2018-Feb-10 08:00N 35°17' E 139°41'0 0.0
2018-Feb-10 07:27N 35°17' E 139°41'0 0.0
2018-Feb-10 06:57N 35°17' E 139°41'0 0.0
2018-Feb-10 06:30N 35°17' E 139°41'0 0.0
2018-Feb-10 05:57N 35°17' E 139°41'0 0.0
2018-Feb-10 05:27N 35°17' E 139°41'0 0.0
2018-Feb-10 04:24N 35°17' E 139°41'2 3.5
2018-Feb-10 03:57N 35°18' E 139°42'0 0.3
2018-Feb-10 02:56N 35°18' E 139°42'0 0.3
2018-Feb-10 02:30N 35°18' E 139°43'0 0.2
2018-Feb-10 01:56N 35°18' E 139°42'0 0.2
2018-Feb-10 01:25N 35°18' E 139°42'1 2.1
2018-Feb-10 00:57N 35°17' E 139°41'1 2.3
2018-Feb-10 00:30N 35°18' E 139°42'0 0.3
2018-Feb-09 23:42N 35°18' E 139°42'0 0.2
2018-Feb-09 23:14N 35°18' E 139°42'0 0.5
2018-Feb-09 22:59N 35°18' E 139°42'0 0.2
2018-Feb-09 22:46N 35°18' E 139°43'0 0.0
2018-Feb-09 01:00N 35°18' E 139°43'1 0.5
2018-Feb-08 23:30N 35°19' E 139°42'  

Dump ship's entire track history